Detall de PIREP

Printer-friendly versionPDF version

[2012/12/04 09:37:00]
Flight IATA:CT1005
Pilot Number:042
Company ICAO:CAT
Aircraft Type:B738/F
PAX:98
Departing Airport: LOWW
Destination Airport: LIPZ
Alternate Airport:LIMC
Online: VATSIM
Route:UMBIL UM725 GRZ UN737 RADLY UM196 BADOP UP125 ROSKA UM859 CHI
Flight Level:F320
No Slew and time accel
No pause
Crash detect
Detect pilot in Cockpit between each 30 and 45 minutes
09:37 Zero fuel Weight: 115600 Lbs, Fuel Weight: 46005 Lbs
09:37 VATSIM:LOWW 040850Z 11004KT 030V160 9999 FEW032 BKN080 01/M00 Q1003 NOSIG
09:37 VATSIM:LIPZ 040850Z 03006KT 9999 BKN040 02/M02 Q1006
09:37 VOICE CATALONIAN/EU TOUR
09:46 Parking Brakes off
09:52 Take-off
09:52 Take off Weight: 160606 Lbs
09:52 Wind: 128º @ 009 Knots Heading: 162º
09:52 POS N48º 05´ 51´´ E016º 35´ 15´´
09:52 Gear Up: 172 Knots
09:52 Flaps:5 at 172 Knots
09:52 Flaps:4 at 174 Knots
09:52 Flaps:3 at 159 Knots
09:53 Flaps:2 at 172 Knots
09:53 Flaps:1 at 190 Knots
09:54 Flaps:0 at 199 Knots
10:07 Wind:273º@071 Knots Heading: 203º Ground Speed: 432 Knots Altitude 27588 ft
10:10 TOC
10:10 Fuel Weight: 41123 Lb
10:22 Wind:275º@061 Knots Heading: 239º Ground Speed: 400 Knots Altitude 31768 ft
10:24 TOD
10:24 Fuel Weight: 39699 Lb
10:36 Flaps:1 at 229 Knots
10:37 Wind:241º@016 Knots Heading: 316º Ground Speed: 230 Knots Altitude 9127 ft
10:39 Flaps:2 at 211 Knots
10:39 Flaps:3 at 208 Knots
10:42 Gear Down: 204 Knots
10:42 Flaps:4 at 203 Knots
10:42 Flaps:5 at 199 Knots
10:42 Flaps:6 at 192 Knots
10:42 Flaps:7 at 158 Knots
10:42 Flaps:8 at 155 Knots
10:45 TouchDown:Rate -172 ft/min Speed: 129 Knots
10:45 VATSIM:LIPZ 041020Z 02007KT 9999 -RA BKN040 03/M01 Q1004
10:46 Land
10:46 Wind:352º@005 Knots
10:46 Heading: 042º
10:46 Flight Duration: 00:54
10:46 Landing Weight: 154245 Lbs
10:46 POS N45º 30´ 28´´ E012º 21´ 19´´
10:49 Parking brakes on
10:49 Block to Block Duration: 01:03
10:49 Final Fuel: 38311 Lbls
10:49 Spent Fuel: 7694 Lbls
10:49 Flight Length: 296 NM
10:49 TOD Land Length: 98 NM

Exportar CSV

Powered by Drupal - Modified by Danger4k